sensor_id;sensor_type;location;lat;lon;timestamp;pressure;altitude;pressure_sealevel;temperature;humidity
36378;BME280;22402;42.746;23.606;2023-07-20T00:01:28;93265.81;;;21.28;96.71
36378;BME280;22402;42.746;23.606;2023-07-20T00:03:53;93260.00;;;21.12;96.58
36378;BME280;22402;42.746;23.606;2023-07-20T00:06:25;93260.66;;;21.01;95.87
36378;BME280;22402;42.746;23.606;2023-07-20T00:08:53;93265.00;;;20.89;96.17
36378;BME280;22402;42.746;23.606;2023-07-20T00:11:19;93259.94;;;20.81;96.28
36378;BME280;22402;42.746;23.606;2023-07-20T00:13:44;93249.56;;;20.73;96.76
36378;BME280;22402;42.746;23.606;2023-07-20T00:16:10;93230.44;;;20.70;98.92
36378;BME280;22402;42.746;23.606;2023-07-20T00:18:35;93233.69;;;20.73;99.88
36378;BME280;22402;42.746;23.606;2023-07-20T00:21:01;93236.53;;;20.78;98.41
36378;BME280;22402;42.746;23.606;2023-07-20T00:23:27;93230.03;;;20.74;97.79
36378;BME280;22402;42.746;23.606;2023-07-20T00:25:53;93206.00;;;20.68;98.87
36378;BME280;22402;42.746;23.606;2023-07-20T00:28:18;93221.91;;;20.68;100.00
36378;BME280;22402;42.746;23.606;2023-07-20T00:30:44;93247.91;;;20.78;97.52
36378;BME280;22402;42.746;23.606;2023-07-20T00:33:12;93245.91;;;20.74;96.48
36378;BME280;22402;42.746;23.606;2023-07-20T00:35:38;93231.28;;;20.64;98.00
36378;BME280;22402;42.746;23.606;2023-07-20T00:38:04;93234.53;;;20.66;99.30
36378;BME280;22402;42.746;23.606;2023-07-20T00:40:40;93225.56;;;20.67;98.55
36378;BME280;22402;42.746;23.606;2023-07-20T00:43:06;93227.19;;;20.68;98.14
36378;BME280;22402;42.746;23.606;2023-07-20T00:45:32;93216.41;;;20.63;97.63
36378;BME280;22402;42.746;23.606;2023-07-20T00:47:58;93213.00;;;20.56;97.50
36378;BME280;22402;42.746;23.606;2023-07-20T00:50:25;93198.09;;;20.55;98.13
36378;BME280;22402;42.746;23.606;2023-07-20T00:52:51;93209.72;;;20.47;98.89
36378;BME280;22402;42.746;23.606;2023-07-20T00:55:18;93196.91;;;20.44;98.95
36378;BME280;22402;42.746;23.606;2023-07-20T00:57:44;93194.31;;;20.38;99.15
36378;BME280;22402;42.746;23.606;2023-07-20T01:00:10;93193.88;;;20.34;99.44
36378;BME280;22402;42.746;23.606;2023-07-20T01:02:35;93204.50;;;20.27;99.76
36378;BME280;22402;42.746;23.606;2023-07-20T01:05:02;93208.00;;;20.21;99.98
36378;BME280;22402;42.746;23.606;2023-07-20T01:07:35;93208.22;;;20.20;99.84
36378;BME280;22402;42.746;23.606;2023-07-20T01:10:12;93206.78;;;20.17;99.73
36378;BME280;22402;42.746;23.606;2023-07-20T01:12:43;93203.75;;;20.07;100.00
36378;BME280;22402;42.746;23.606;2023-07-20T01:15:12;93203.34;;;20.03;100.00
36378;BME280;22402;42.746;23.606;2023-07-20T01:17:38;93202.56;;;20.03;100.00
36378;BME280;22402;42.746;23.606;2023-07-20T01:20:03;93208.25;;;20.00;100.00
36378;BME280;22402;42.746;23.606;2023-07-20T01:28:48;93202.56;;;19.90;100.00
36378;BME280;22402;42.746;23.606;2023-07-20T01:31:27;93196.06;;;19.86;99.80
36378;BME280;22402;42.746;23.606;2023-07-20T01:33:57;93185.50;;;19.79;100.00
36378;BME280;22402;42.746;23.606;2023-07-20T01:36:29;93185.91;;;19.83;99.83
36378;BME280;22402;42.746;23.606;2023-07-20T01:38:58;93183.88;;;19.78;99.32
36378;BME280;22402;42.746;23.606;2023-07-20T01:41:24;93182.88;;;19.79;99.26
36378;BME280;22402;42.746;23.606;2023-07-20T01:43:50;93177.59;;;19.72;99.86
36378;BME280;22402;42.746;23.606;2023-07-20T01:46:15;93185.53;;;19.72;99.88
36378;BME280;22402;42.746;23.606;2023-07-20T01:48:41;93189.59;;;19.68;100.00
36378;BME280;22402;42.746;23.606;2023-07-20T01:51:06;93188.78;;;19.68;100.00
36378;BME280;22402;42.746;23.606;2023-07-20T01:53:34;93187.56;;;19.70;99.81
36378;BME280;22402;42.746;23.606;2023-07-20T01:55:59;93186.34;;;19.66;99.79
36378;BME280;22402;42.746;23.606;2023-07-20T01:58:25;93183.06;;;19.64;99.47
36378;BME280;22402;42.746;23.606;2023-07-20T02:00:51;93184.72;;;19.65;99.64
36378;BME280;22402;42.746;23.606;2023-07-20T02:03:19;93176.97;;;19.64;99.48
36378;BME280;22402;42.746;23.606;2023-07-20T02:05:47;93176.16;;;19.70;99.90
36378;BME280;22402;42.746;23.606;2023-07-20T02:08:12;93175.38;;;19.69;100.00
36378;BME280;22402;42.746;23.606;2023-07-20T02:10:38;93170.88;;;19.76;99.96
36378;BME280;22402;42.746;23.606;2023-07-20T02:13:03;93172.91;;;19.74;98.92
36378;BME280;22402;42.746;23.606;2023-07-20T02:15:29;93175.75;;;19.73;98.56
36378;BME280;22402;42.746;23.606;2023-07-20T02:17:54;93175.97;;;19.65;98.70
36378;BME280;22402;42.746;23.606;2023-07-20T02:20:20;93183.25;;;19.63;98.74
36378;BME280;22402;42.746;23.606;2023-07-20T02:22:46;93183.72;;;19.66;98.92
36378;BME280;22402;42.746;23.606;2023-07-20T02:25:12;93185.09;;;19.62;99.50
36378;BME280;22402;42.746;23.606;2023-07-20T02:27:37;93188.75;;;19.61;99.63
36378;BME280;22402;42.746;23.606;2023-07-20T02:30:06;93188.34;;;19.64;99.14
36378;BME280;22402;42.746;23.606;2023-07-20T02:32:32;93197.69;;;19.60;100.00
36378;BME280;22402;42.746;23.606;2023-07-20T02:35:00;93194.66;;;19.63;100.00
36378;BME280;22402;42.746;23.606;2023-07-20T02:37:26;93190.41;;;19.69;100.00
36378;BME280;22402;42.746;23.606;2023-07-20T02:39:51;93185.94;;;19.69;100.00
36378;BME280;22402;42.746;23.606;2023-07-20T02:42:16;93183.88;;;19.71;100.00
36378;BME280;22402;42.746;23.606;2023-07-20T02:44:42;93176.97;;;19.70;100.00
36378;BME280;22402;42.746;23.606;2023-07-20T02:47:07;93175.94;;;19.71;100.00
36378;BME280;22402;42.746;23.606;2023-07-20T02:52:13;93161.91;;;19.64;100.00
36378;BME280;22402;42.746;23.606;2023-07-20T02:54:38;93146.06;;;19.57;100.00
36378;BME280;22402;42.746;23.606;2023-07-20T02:57:04;93150.50;;;19.57;100.00
36378;BME280;22402;42.746;23.606;2023-07-20T02:59:29;93154.41;;;19.54;100.00
36378;BME280;22402;42.746;23.606;2023-07-20T03:01:55;93156.44;;;19.46;100.00
36378;BME280;22402;42.746;23.606;2023-07-20T03:04:21;93157.84;;;19.42;100.00
36378;BME280;22402;42.746;23.606;2023-07-20T03:06:47;93166.81;;;19.41;100.00
36378;BME280;22402;42.746;23.606;2023-07-20T03:09:12;93166.03;;;19.33;100.00
36378;BME280;22402;42.746;23.606;2023-07-20T03:11:37;93167.66;;;19.28;100.00
36378;BME280;22402;42.746;23.606;2023-07-20T03:14:03;93166.81;;;19.27;100.00
36378;BME280;22402;42.746;23.606;2023-07-20T03:16:28;93176.16;;;19.23;100.00
36378;BME280;22402;42.746;23.606;2023-07-20T03:18:58;93172.50;;;19.24;100.00
36378;BME280;22402;42.746;23.606;2023-07-20T03:21:24;93177.38;;;19.21;100.00
36378;BME280;22402;42.746;23.606;2023-07-20T03:23:49;93173.72;;;19.15;100.00
36378;BME280;22402;42.746;23.606;2023-07-20T03:26:17;93181.88;;;19.13;100.00
36378;BME280;22402;42.746;23.606;2023-07-20T03:28:43;93175.56;;;19.08;100.00
36378;BME280;22402;42.746;23.606;2023-07-20T03:31:09;93182.47;;;19.09;100.00
36378;BME280;22402;42.746;23.606;2023-07-20T03:33:34;93179.22;;;19.13;100.00
36378;BME280;22402;42.746;23.606;2023-07-20T03:36:00;93185.31;;;19.21;100.00
36378;BME280;22402;42.746;23.606;2023-07-20T03:38:26;93177.59;;;19.26;100.00
36378;BME280;22402;42.746;23.606;2023-07-20T03:40:53;93174.53;;;19.29;100.00
36378;BME280;22402;42.746;23.606;2023-07-20T03:43:19;93166.03;;;19.33;100.00
36378;BME280;22402;42.746;23.606;2023-07-20T03:45:52;93167.63;;;19.41;100.00
36378;BME280;22402;42.746;23.606;2023-07-20T03:48:19;93171.91;;;19.49;100.00
36378;BME280;22402;42.746;23.606;2023-07-20T03:50:47;93162.31;;;19.48;100.00
36378;BME280;22402;42.746;23.606;2023-07-20T03:53:13;93164.34;;;19.59;99.95
36378;BME280;22402;42.746;23.606;2023-07-20T03:55:42;93169.66;;;19.66;99.73
36378;BME280;22402;42.746;23.606;2023-07-20T03:58:09;93184.28;;;19.75;99.08
36378;BME280;22402;42.746;23.606;2023-07-20T04:00:35;93187.31;;;19.85;100.00
36378;BME280;22402;42.746;23.606;2023-07-20T04:03:05;93187.09;;;20.00;100.00
36378;BME280;22402;42.746;23.606;2023-07-20T04:05:31;93189.94;;;20.05;100.00
36378;BME280;22402;42.746;23.606;2023-07-20T04:07:56;93193.78;;;20.09;100.00
36378;BME280;22402;42.746;23.606;2023-07-20T04:10:21;93198.63;;;20.19;100.00
36378;BME280;22402;42.746;23.606;2023-07-20T04:12:47;93197.97;;;20.30;100.00
36378;BME280;22402;42.746;23.606;2023-07-20T04:15:13;93195.72;;;20.34;100.00
36378;BME280;22402;42.746;23.606;2023-07-20T04:17:39;93196.94;;;20.38;100.00
36378;BME280;22402;42.746;23.606;2023-07-20T04:20:06;93190.59;;;20.45;100.00
36378;BME280;22402;42.746;23.606;2023-07-20T04:22:32;93203.22;;;20.50;100.00
36378;BME280;22402;42.746;23.606;2023-07-20T04:24:57;93190.78;;;20.57;100.00
36378;BME280;22402;42.746;23.606;2023-07-20T04:27:22;93177.72;;;20.62;100.00
36378;BME280;22402;42.746;23.606;2023-07-20T04:29:48;93170.34;;;20.71;100.00
36378;BME280;22402;42.746;23.606;2023-07-20T04:32:13;93174.41;;;20.74;100.00
36378;BME280;22402;42.746;23.606;2023-07-20T04:34:39;93172.09;;;20.84;100.00
36378;BME280;22402;42.746;23.606;2023-07-20T04:37:04;93163.88;;;20.92;100.00
36378;BME280;22402;42.746;23.606;2023-07-20T04:39:30;93162.00;;;20.99;100.00
36378;BME280;22402;42.746;23.606;2023-07-20T04:41:56;93161.75;;;21.07;100.00
36378;BME280;22402;42.746;23.606;2023-07-20T04:44:21;93155.38;;;21.15;100.00
36378;BME280;22402;42.746;23.606;2023-07-20T04:46:47;93159.16;;;21.26;100.00
36378;BME280;22402;42.746;23.606;2023-07-20T04:49:12;93152.97;;;21.32;100.00
36378;BME280;22402;42.746;23.606;2023-07-20T04:51:38;93155.41;;;21.40;100.00
36378;BME280;22402;42.746;23.606;2023-07-20T04:54:04;93150.84;;;21.47;100.00
36378;BME280;22402;42.746;23.606;2023-07-20T04:56:29;93161.19;;;21.55;99.40
36378;BME280;22402;42.746;23.606;2023-07-20T04:58:55;93151.53;;;21.61;97.94
36378;BME280;22402;42.746;23.606;2023-07-20T05:01:20;93160.03;;;21.70;96.93
36378;BME280;22402;42.746;23.606;2023-07-20T05:03:46;93163.41;;;21.77;96.51
36378;BME280;22402;42.746;23.606;2023-07-20T05:06:11;93166.38;;;21.87;96.06
36378;BME280;22402;42.746;23.606;2023-07-20T05:08:37;93167.50;;;21.98;96.21
36378;BME280;22402;42.746;23.606;2023-07-20T05:11:06;93164.91;;;22.10;94.59
36378;BME280;22402;42.746;23.606;2023-07-20T05:13:33;93163.63;;;22.19;95.24
36378;BME280;22402;42.746;23.606;2023-07-20T05:15:59;93170.28;;;22.28;93.81
36378;BME280;22402;42.746;23.606;2023-07-20T05:18:24;93172.41;;;22.38;92.71
36378;BME280;22402;42.746;23.606;2023-07-20T05:20:53;93172.47;;;22.49;92.76
36378;BME280;22402;42.746;23.606;2023-07-20T05:23:20;93173.31;;;22.62;92.27
36378;BME280;22402;42.746;23.606;2023-07-20T05:25:46;93167.00;;;22.74;91.48
36378;BME280;22402;42.746;23.606;2023-07-20T05:28:12;93163.94;;;22.89;90.51
36378;BME280;22402;42.746;23.606;2023-07-20T05:30:37;93173.97;;;23.06;89.48
36378;BME280;22402;42.746;23.606;2023-07-20T05:33:03;93172.28;;;23.23;89.30
36378;BME280;22402;42.746;23.606;2023-07-20T05:35:28;93166.50;;;23.38;89.67
36378;BME280;22402;42.746;23.606;2023-07-20T05:37:54;93161.13;;;23.56;89.08
36378;BME280;22402;42.746;23.606;2023-07-20T05:40:19;93158.13;;;23.76;88.20
36378;BME280;22402;42.746;23.606;2023-07-20T05:42:46;93158.38;;;23.98;86.99
36378;BME280;22402;42.746;23.606;2023-07-20T05:45:13;93165.75;;;24.20;85.91
36378;BME280;22402;42.746;23.606;2023-07-20T05:47:39;93161.91;;;24.39;84.58
36378;BME280;22402;42.746;23.606;2023-07-20T05:50:05;93165.22;;;24.58;84.31
36378;BME280;22402;42.746;23.606;2023-07-20T05:52:31;93156.56;;;24.79;83.45
36378;BME280;22402;42.746;23.606;2023-07-20T05:54:57;93169.69;;;24.98;82.94
36378;BME280;22402;42.746;23.606;2023-07-20T05:57:22;93169.75;;;25.15;82.67
36378;BME280;22402;42.746;23.606;2023-07-20T05:59:48;93180.47;;;25.32;82.34
36378;BME280;22402;42.746;23.606;2023-07-20T06:02:13;93190.31;;;25.48;82.08
36378;BME280;22402;42.746;23.606;2023-07-20T06:04:39;93184.69;;;25.61;82.10
36378;BME280;22402;42.746;23.606;2023-07-20T06:07:05;93188.63;;;25.76;81.41
36378;BME280;22402;42.746;23.606;2023-07-20T06:09:30;93177.88;;;25.87;80.38
36378;BME280;22402;42.746;23.606;2023-07-20T06:11:56;93185.81;;;25.99;79.95
36378;BME280;22402;42.746;23.606;2023-07-20T06:14:22;93179.34;;;26.12;80.16
36378;BME280;22402;42.746;23.606;2023-07-20T06:16:50;93172.81;;;26.25;80.04
36378;BME280;22402;42.746;23.606;2023-07-20T06:19:15;93164.69;;;26.36;79.44
36378;BME280;22402;42.746;23.606;2023-07-20T06:21:43;93166.44;;;26.48;79.13
36378;BME280;22402;42.746;23.606;2023-07-20T06:24:09;93174.38;;;26.59;78.82
36378;BME280;22402;42.746;23.606;2023-07-20T06:26:35;93167.81;;;26.72;78.22
36378;BME280;22402;42.746;23.606;2023-07-20T06:29:05;93160.22;;;26.86;77.47
36378;BME280;22402;42.746;23.606;2023-07-20T06:31:32;93160.31;;;26.96;76.98
36378;BME280;22402;42.746;23.606;2023-07-20T06:33:57;93151.06;;;27.09;76.46
36378;BME280;22402;42.746;23.606;2023-07-20T06:36:22;93143.44;;;27.18;75.59
36378;BME280;22402;42.746;23.606;2023-07-20T06:38:48;93147.03;;;27.29;75.23
36378;BME280;22402;42.746;23.606;2023-07-20T06:41:13;93152.22;;;27.40;75.03
36378;BME280;22402;42.746;23.606;2023-07-20T06:43:39;93150.16;;;27.53;73.84
36378;BME280;22402;42.746;23.606;2023-07-20T06:46:04;93146.81;;;27.67;73.42
36378;BME280;22402;42.746;23.606;2023-07-20T06:48:30;93147.22;;;27.86;72.15
36378;BME280;22402;42.746;23.606;2023-07-20T06:50:55;93146.50;;;28.01;71.50
36378;BME280;22402;42.746;23.606;2023-07-20T06:53:21;93147.97;;;28.19;71.28
36378;BME280;22402;42.746;23.606;2023-07-20T06:55:46;93149.38;;;28.37;70.45
36378;BME280;22402;42.746;23.606;2023-07-20T06:58:12;93150.84;;;28.55;68.77
36378;BME280;22402;42.746;23.606;2023-07-20T07:00:37;93159.53;;;28.82;67.98
36378;BME280;22402;42.746;23.606;2023-07-20T07:03:03;93153.75;;;29.16;66.75
36378;BME280;22402;42.746;23.606;2023-07-20T07:05:28;93156.75;;;29.56;65.60
36378;BME280;22402;42.746;23.606;2023-07-20T07:07:54;93166.13;;;30.04;63.91
36378;BME280;22402;42.746;23.606;2023-07-20T07:10:19;93175.25;;;30.44;61.98
36378;BME280;22402;42.746;23.606;2023-07-20T07:12:45;93181.38;;;30.55;61.77
36378;BME280;22402;42.746;23.606;2023-07-20T07:15:10;93179.00;;;30.43;60.84
36378;BME280;22402;42.746;23.606;2023-07-20T07:17:36;93180.38;;;30.20;61.22
36378;BME280;22402;42.746;23.606;2023-07-20T07:20:02;93190.09;;;29.90;62.37
36378;BME280;22402;42.746;23.606;2023-07-20T07:22:29;93195.19;;;29.66;62.85
36378;BME280;22402;42.746;23.606;2023-07-20T07:24:54;93192.19;;;29.52;63.63
36378;BME280;22402;42.746;23.606;2023-07-20T07:27:20;93200.75;;;29.44;63.29
36378;BME280;22402;42.746;23.606;2023-07-20T07:29:45;93219.28;;;29.36;63.40
36378;BME280;22402;42.746;23.606;2023-07-20T07:32:11;93219.78;;;29.22;63.88
36378;BME280;22402;42.746;23.606;2023-07-20T07:34:37;93220.56;;;29.07;64.66
36378;BME280;22402;42.746;23.606;2023-07-20T07:37:04;93226.16;;;29.06;64.93
36378;BME280;22402;42.746;23.606;2023-07-20T07:39:30;93230.56;;;29.38;64.92
36378;BME280;22402;42.746;23.606;2023-07-20T07:41:56;93223.13;;;29.91;63.63
36378;BME280;22402;42.746;23.606;2023-07-20T07:44:24;93218.56;;;30.37;62.48
36378;BME280;22402;42.746;23.606;2023-07-20T07:46:50;93203.09;;;30.84;61.59
36378;BME280;22402;42.746;23.606;2023-07-20T07:49:16;93202.91;;;31.30;60.36
36378;BME280;22402;42.746;23.606;2023-07-20T07:51:42;93201.28;;;31.73;59.75
36378;BME280;22402;42.746;23.606;2023-07-20T07:54:09;93210.09;;;32.18;58.88
36378;BME280;22402;42.746;23.606;2023-07-20T07:56:35;93198.66;;;32.61;58.12
36378;BME280;22402;42.746;23.606;2023-07-20T07:59:00;93195.22;;;33.03;56.44
36378;BME280;22402;42.746;23.606;2023-07-20T08:01:26;93198.25;;;33.40;55.80
36378;BME280;22402;42.746;23.606;2023-07-20T08:03:51;93168.22;;;33.79;54.96
36378;BME280;22402;42.746;23.606;2023-07-20T08:06:17;93164.06;;;34.19;53.43
36378;BME280;22402;42.746;23.606;2023-07-20T08:08:42;93172.69;;;34.54;52.19
36378;BME280;22402;42.746;23.606;2023-07-20T08:11:11;93175.06;;;34.97;51.63
36378;BME280;22402;42.746;23.606;2023-07-20T08:13:36;93176.84;;;35.43;49.60
36378;BME280;22402;42.746;23.606;2023-07-20T08:16:02;93178.97;;;35.69;48.23
36378;BME280;22402;42.746;23.606;2023-07-20T08:18:28;93176.44;;;35.36;48.08
36378;BME280;22402;42.746;23.606;2023-07-20T08:20:53;93188.59;;;35.38;46.91
36378;BME280;22402;42.746;23.606;2023-07-20T08:23:19;93191.28;;;35.52;45.97
36378;BME280;22402;42.746;23.606;2023-07-20T08:25:45;93188.91;;;35.37;44.88
36378;BME280;22402;42.746;23.606;2023-07-20T08:28:14;93189.56;;;35.56;44.88
36378;BME280;22402;42.746;23.606;2023-07-20T08:30:48;93186.09;;;35.28;44.10
36378;BME280;22402;42.746;23.606;2023-07-20T08:33:15;93190.03;;;35.08;44.89
36378;BME280;22402;42.746;23.606;2023-07-20T08:35:43;93186.66;;;35.39;44.32
36378;BME280;22402;42.746;23.606;2023-07-20T08:38:09;93194.28;;;35.65;43.29
36378;BME280;22402;42.746;23.606;2023-07-20T08:40:46;93194.66;;;35.94;42.49
36378;BME280;22402;42.746;23.606;2023-07-20T08:43:12;93191.97;;;36.17;42.02
36378;BME280;22402;42.746;23.606;2023-07-20T08:45:40;93185.53;;;36.35;41.99
36378;BME280;22402;42.746;23.606;2023-07-20T08:48:07;93187.25;;;36.54;42.03
36378;BME280;22402;42.746;23.606;2023-07-20T08:50:34;93196.44;;;36.75;40.84
36378;BME280;22402;42.746;23.606;2023-07-20T08:53:00;93201.81;;;36.98;41.13
36378;BME280;22402;42.746;23.606;2023-07-20T08:55:27;93198.53;;;37.18;40.26
36378;BME280;22402;42.746;23.606;2023-07-20T08:57:54;93184.84;;;37.40;39.91
36378;BME280;22402;42.746;23.606;2023-07-20T09:00:21;93196.41;;;37.63;38.43
36378;BME280;22402;42.746;23.606;2023-07-20T09:02:51;93190.50;;;37.88;39.14
36378;BME280;22402;42.746;23.606;2023-07-20T09:05:17;93189.22;;;38.11;39.08
36378;BME280;22402;42.746;23.606;2023-07-20T09:07:43;93184.69;;;38.33;39.52
36378;BME280;22402;42.746;23.606;2023-07-20T09:10:09;93185.13;;;38.61;38.99
36378;BME280;22402;42.746;23.606;2023-07-20T09:12:37;93179.94;;;38.85;38.76
36378;BME280;22402;42.746;23.606;2023-07-20T09:15:04;93174.56;;;39.06;38.43
36378;BME280;22402;42.746;23.606;2023-07-20T09:17:32;93168.78;;;39.29;37.45
36378;BME280;22402;42.746;23.606;2023-07-20T09:19:58;93164.94;;;39.59;36.77
36378;BME280;22402;42.746;23.606;2023-07-20T09:22:32;93174.19;;;39.88;36.31
36378;BME280;22402;42.746;23.606;2023-07-20T09:24:58;93165.66;;;40.10;35.46
36378;BME280;22402;42.746;23.606;2023-07-20T09:27:38;93163.22;;;40.30;34.98
36378;BME280;22402;42.746;23.606;2023-07-20T09:30:05;93160.09;;;40.52;34.48
36378;BME280;22402;42.746;23.606;2023-07-20T09:32:45;93165.72;;;40.68;34.49
36378;BME280;22402;42.746;23.606;2023-07-20T09:35:23;93159.94;;;40.82;33.97
36378;BME280;22402;42.746;23.606;2023-07-20T09:37:50;93158.81;;;41.08;33.92
36378;BME280;22402;42.746;23.606;2023-07-20T09:40:18;93156.75;;;41.41;32.79
36378;BME280;22402;42.746;23.606;2023-07-20T09:42:44;93153.53;;;41.64;32.05
36378;BME280;22402;42.746;23.606;2023-07-20T09:45:09;93158.13;;;41.88;31.76
36378;BME280;22402;42.746;23.606;2023-07-20T09:47:36;93160.91;;;42.16;31.39
36378;BME280;22402;42.746;23.606;2023-07-20T09:50:03;93158.06;;;42.41;29.80
36378;BME280;22402;42.746;23.606;2023-07-20T09:52:30;93163.94;;;42.71;29.98
36378;BME280;22402;42.746;23.606;2023-07-20T09:54:56;93163.19;;;43.02;28.45
36378;BME280;22402;42.746;23.606;2023-07-20T09:57:23;93150.66;;;43.36;28.50
36378;BME280;22402;42.746;23.606;2023-07-20T09:59:48;93159.06;;;43.79;26.24
36378;BME280;22402;42.746;23.606;2023-07-20T10:02:25;93150.38;;;43.57;26.32
36378;BME280;22402;42.746;23.606;2023-07-20T10:04:55;93151.56;;;43.09;27.14
36378;BME280;22402;42.746;23.606;2023-07-20T10:07:27;93137.22;;;42.68;27.54
36378;BME280;22402;42.746;23.606;2023-07-20T10:09:52;93131.31;;;42.50;27.69
36378;BME280;22402;42.746;23.606;2023-07-20T10:12:20;93127.22;;;42.72;27.27
36378;BME280;22402;42.746;23.606;2023-07-20T10:17:53;93126.13;;;41.76;29.52
36378;BME280;22402;42.746;23.606;2023-07-20T10:20:23;93117.34;;;40.69;30.43
36378;BME280;22402;42.746;23.606;2023-07-20T10:22:53;93124.75;;;39.69;31.83
36378;BME280;22402;42.746;23.606;2023-07-20T10:25:20;93127.38;;;38.76;33.42
36378;BME280;22402;42.746;23.606;2023-07-20T10:27:48;93120.69;;;37.92;34.44
36378;BME280;22402;42.746;23.606;2023-07-20T10:30:14;93118.16;;;37.26;35.58
36378;BME280;22402;42.746;23.606;2023-07-20T10:32:40;93120.56;;;36.79;35.86
36378;BME280;22402;42.746;23.606;2023-07-20T10:35:18;93125.72;;;36.49;36.87
36378;BME280;22402;42.746;23.606;2023-07-20T10:37:51;93138.94;;;36.11;37.75
36378;BME280;22402;42.746;23.606;2023-07-20T10:40:27;93144.34;;;35.66;38.94
36378;BME280;22402;42.746;23.606;2023-07-20T10:42:58;93135.75;;;35.13;39.73
36378;BME280;22402;42.746;23.606;2023-07-20T10:48:13;93134.53;;;34.37;42.29
36378;BME280;22402;42.746;23.606;2023-07-20T10:50:40;93122.38;;;34.07;43.33
36378;BME280;22402;42.746;23.606;2023-07-20T10:53:16;93102.53;;;33.78;44.08
36378;BME280;22402;42.746;23.606;2023-07-20T10:55:42;93099.69;;;33.56;45.06
36378;BME280;22402;42.746;23.606;2023-07-20T10:58:14;93108.22;;;33.44;45.00
36378;BME280;22402;42.746;23.606;2023-07-20T11:01:03;93121.00;;;33.39;45.26
36378;BME280;22402;42.746;23.606;2023-07-20T11:03:34;93117.19;;;33.40;45.52
36378;BME280;22402;42.746;23.606;2023-07-20T11:09:13;93090.00;;;34.01;43.62
36378;BME280;22402;42.746;23.606;2023-07-20T11:11:44;93070.31;;;34.56;42.13
36378;BME280;22402;42.746;23.606;2023-07-20T11:14:20;93074.88;;;34.97;41.73
36378;BME280;22402;42.746;23.606;2023-07-20T11:16:47;93076.50;;;35.34;40.84
36378;BME280;22402;42.746;23.606;2023-07-20T11:19:17;93086.81;;;35.69;40.40
36378;BME280;22402;42.746;23.606;2023-07-20T11:21:44;93085.94;;;35.82;39.72
36378;BME280;22402;42.746;23.606;2023-07-20T11:24:10;93079.00;;;35.98;39.33
36378;BME280;22402;42.746;23.606;2023-07-20T11:29:16;93076.75;;;36.54;38.24
36378;BME280;22402;42.746;23.606;2023-07-20T11:31:43;93076.81;;;36.80;37.58
36378;BME280;22402;42.746;23.606;2023-07-20T11:34:19;93078.97;;;37.27;37.12
36378;BME280;22402;42.746;23.606;2023-07-20T11:36:49;93074.03;;;37.72;37.00
36378;BME280;22402;42.746;23.606;2023-07-20T11:39:21;93078.63;;;37.89;36.24
36378;BME280;22402;42.746;23.606;2023-07-20T11:41:48;93074.81;;;37.99;35.40
36378;BME280;22402;42.746;23.606;2023-07-20T11:44:21;93077.53;;;38.75;34.16
36378;BME280;22402;42.746;23.606;2023-07-20T11:46:59;93073.44;;;39.83;32.79
36378;BME280;22402;42.746;23.606;2023-07-20T11:49:25;93067.91;;;40.98;31.25
36378;BME280;22402;42.746;23.606;2023-07-20T11:51:51;93064.44;;;42.07;29.29
36378;BME280;22402;42.746;23.606;2023-07-20T11:54:19;93066.41;;;43.01;28.13
36378;BME280;22402;42.746;23.606;2023-07-20T11:56:45;93051.88;;;43.72;26.78
36378;BME280;22402;42.746;23.606;2023-07-20T11:59:11;93053.47;;;44.34;26.13
36378;BME280;22402;42.746;23.606;2023-07-20T12:01:37;93059.47;;;44.86;25.45
36378;BME280;22402;42.746;23.606;2023-07-20T12:04:04;93051.38;;;45.23;25.28
36378;BME280;22402;42.746;23.606;2023-07-20T12:06:31;93051.50;;;45.61;24.79
36378;BME280;22402;42.746;23.606;2023-07-20T12:08:58;93059.81;;;45.98;24.17
36378;BME280;22402;42.746;23.606;2023-07-20T12:11:49;93047.22;;;46.34;23.33
36378;BME280;22402;42.746;23.606;2023-07-20T12:14:17;93046.94;;;46.47;23.06
36378;BME280;22402;42.746;23.606;2023-07-20T12:16:43;93042.59;;;46.46;22.85
36378;BME280;22402;42.746;23.606;2023-07-20T12:19:13;93051.69;;;46.50;22.50
36378;BME280;22402;42.746;23.606;2023-07-20T12:21:40;93035.53;;;46.48;22.27
36378;BME280;22402;42.746;23.606;2023-07-20T12:24:07;93033.97;;;46.51;22.29
36378;BME280;22402;42.746;23.606;2023-07-20T12:26:34;93036.38;;;46.56;21.71
36378;BME280;22402;42.746;23.606;2023-07-20T12:29:00;93015.94;;;46.64;21.73
36378;BME280;22402;42.746;23.606;2023-07-20T12:31:27;93029.44;;;46.73;21.75
36378;BME280;22402;42.746;23.606;2023-07-20T12:33:53;93033.38;;;46.68;21.88
36378;BME280;22402;42.746;23.606;2023-07-20T12:36:22;93027.84;;;46.68;21.70
36378;BME280;22402;42.746;23.606;2023-07-20T12:38:55;93023.94;;;46.73;21.56
36378;BME280;22402;42.746;23.606;2023-07-20T12:41:21;93022.34;;;46.68;21.31
36378;BME280;22402;42.746;23.606;2023-07-20T12:43:46;93019.97;;;46.70;21.33
36378;BME280;22402;42.746;23.606;2023-07-20T12:46:13;93023.13;;;46.72;20.86
36378;BME280;22402;42.746;23.606;2023-07-20T12:48:39;93027.84;;;46.68;20.95
36378;BME280;22402;42.746;23.606;2023-07-20T12:51:06;93021.75;;;46.48;20.81
36378;BME280;22402;42.746;23.606;2023-07-20T12:53:33;93013.38;;;46.37;20.94
36378;BME280;22402;42.746;23.606;2023-07-20T12:55:59;93014.13;;;46.31;20.85
36378;BME280;22402;42.746;23.606;2023-07-20T12:58:25;93020.41;;;46.31;20.87
36378;BME280;22402;42.746;23.606;2023-07-20T13:00:51;93014.41;;;46.22;20.71
36378;BME280;22402;42.746;23.606;2023-07-20T13:03:16;93011.75;;;45.92;20.45
36378;BME280;22402;42.746;23.606;2023-07-20T13:05:47;93024.47;;;45.70;21.01
36378;BME280;22402;42.746;23.606;2023-07-20T13:08:13;93020.25;;;45.50;21.81